Time;durP1;ratioP1;P1;durP2;ratioP2;P2;SDS_P1;SDS_P2;PMS_P1;PMS_P2;Temp;Humidity;BMP_temperature;BMP_pressure;BME280_temperature;BME280_humidity;BME280_pressure;Samples;Min_cycle;Max_cycle;Signal;HPM_P1;HPM_P2
2022/10/26 00:02:04;;;;;;;17.17;8.52;;;;;;;10.86;100.00;93618.84;5130789;27;20043;-77
2022/10/26 00:04:31;;;;;;;14.05;7.60;;;;;;;10.80;100.00;93622.22;5130455;27;20039;-77
2022/10/26 00:06:59;;;;;;;14.57;7.65;;;;;;;10.71;100.00;93618.28;5130360;27;20047;-77
2022/10/26 00:09:26;;;;;;;14.52;7.20;;;;;;;10.60;100.00;93607.59;5131029;27;20103;-77
2022/10/26 00:11:53;;;;;;;13.77;6.82;;;;;;;10.69;100.00;93626.16;5130755;27;20054;-76
2022/10/26 00:14:20;;;;;;;14.85;6.78;;;;;;;10.56;100.00;93596.16;5131080;27;20047;-77
2022/10/26 00:16:46;;;;;;;12.75;7.10;;;;;;;10.66;100.00;93613.75;5130911;27;20100;-75
2022/10/26 00:19:13;;;;;;;12.70;6.93;;;;;;;10.61;100.00;93611.78;5130604;27;20051;-75
2022/10/26 00:21:40;;;;;;;14.15;6.78;;;;;;;10.65;100.00;93620.66;5130637;27;20051;-75
2022/10/26 00:24:08;;;;;;;15.25;6.78;;;;;;;10.62;100.00;93617.69;5130565;27;20116;-75
2022/10/26 00:26:35;;;;;;;14.38;7.45;;;;;;;10.59;100.00;93623.25;5130643;27;20444;-75
2022/10/26 00:29:02;;;;;;;13.27;7.00;;;;;;;10.58;100.00;93619.88;5130413;27;20047;-75
2022/10/26 00:31:28;;;;;;;17.13;8.43;;;;;;;10.52;100.00;93616.31;5130390;27;20043;-75
2022/10/26 00:33:56;;;;;;;15.98;8.50;;;;;;;10.52;100.00;93628.38;5130415;27;20103;-75
2022/10/26 00:36:24;;;;;;;17.33;7.35;;;;;;;10.48;100.00;93627.19;5130605;27;20103;-74
2022/10/26 00:38:52;;;;;;;11.73;7.03;;;;;;;10.41;100.00;93624.56;5121219;27;20047;-75
2022/10/26 00:41:22;;;;;;;17.15;8.38;;;;;;;10.40;100.00;93633.28;5128182;27;20047;-76
2022/10/26 00:43:50;;;;;;;17.73;8.95;;;;;;;10.24;100.00;93608.78;5129692;27;20103;-75
2022/10/26 00:46:20;;;;;;;15.20;8.48;;;;;;;10.31;100.00;93621.63;5129779;27;20091;-75
2022/10/26 00:48:50;;;;;;;16.55;8.60;;;;;;;10.34;100.00;93629.72;5129715;27;20092;-75
2022/10/26 00:51:23;;;;;;;16.90;8.88;;;;;;;10.29;100.00;93625.16;5129156;27;20047;-75
2022/10/26 00:53:53;;;;;;;20.80;8.73;;;;;;;10.24;100.00;93624.19;5129890;27;20042;-75
2022/10/26 00:56:21;;;;;;;16.30;8.65;;;;;;;10.20;100.00;93625.56;5129924;27;20043;-75
2022/10/26 00:58:48;;;;;;;18.05;8.68;;;;;;;10.14;100.00;93622.03;5109728;27;20491;-75
2022/10/26 01:01:15;;;;;;;15.52;7.40;;;;;;;10.16;100.00;93625.97;5115684;27;20500;-75
2022/10/26 01:03:43;;;;;;;14.02;7.50;;;;;;;9.89;100.00;93587.44;5108662;28;20051;-75
2022/10/26 01:06:11;;;;;;;17.90;7.85;;;;;;;10.09;100.00;93611.56;5119836;28;20051;-74
2022/10/26 01:08:39;;;;;;;16.70;8.30;;;;;;;10.09;100.00;93619.25;5129460;28;20047;-75
2022/10/26 01:11:06;;;;;;;15.25;7.90;;;;;;;9.97;100.00;93601.88;5129426;28;20043;-75
2022/10/26 01:13:35;;;;;;;14.73;8.02;;;;;;;10.02;100.00;93608.97;5129468;28;20099;-75
2022/10/26 01:16:26;;;;;;;15.98;9.07;;;;;;;10.06;100.00;93607.59;5129452;28;20047;-75
2022/10/26 01:19:06;;;;;;;16.15;8.98;;;;;;;10.08;100.00;93618.44;5126802;28;20081;-75
2022/10/26 01:21:46;;;;;;;14.55;8.38;;;;;;;10.04;100.00;93604.41;5129259;28;20092;-75
2022/10/26 01:24:33;;;;;;;18.88;7.57;;;;;;;10.06;100.00;93612.72;5129751;28;20402;-75
2022/10/26 01:27:15;;;;;;;18.48;9.30;;;;;;;10.06;100.00;93611.94;5129588;28;20095;-75
2022/10/26 01:29:55;;;;;;;16.08;8.27;;;;;;;10.06;100.00;93612.72;5129325;28;20040;-74
2022/10/26 01:32:30;;;;;;;14.68;8.18;;;;;;;9.98;100.00;93607.78;5126699;28;20045;-75
2022/10/26 01:35:05;;;;;;;14.65;7.97;;;;;;;9.93;100.00;93612.69;5129015;28;20515;-75
2022/10/26 01:37:36;;;;;;;15.68;6.75;;;;;;;9.85;100.00;93606.78;5129194;28;20547;-75
2022/10/26 01:40:09;;;;;;;15.45;8.23;;;;;;;9.83;100.00;93613.88;5129443;28;20043;-75
2022/10/26 01:42:40;;;;;;;13.38;7.22;;;;;;;9.77;100.00;93614.66;5127884;28;20461;-75
2022/10/26 01:45:10;;;;;;;13.85;7.15;;;;;;;9.72;100.00;93609.31;5128495;28;20039;-75
2022/10/26 01:47:40;;;;;;;16.33;7.25;;;;;;;9.66;100.00;93613.44;5128866;28;21101;-75
2022/10/26 01:50:08;;;;;;;18.45;8.80;;;;;;;9.59;100.00;93598.03;5129179;27;20039;-75
2022/10/26 01:52:35;;;;;;;14.23;8.38;;;;;;;9.65;100.00;93601.59;5128860;28;20092;-75
2022/10/26 01:55:03;;;;;;;13.10;7.50;;;;;;;9.52;100.00;93576.72;5126873;28;20043;-75
2022/10/26 01:57:35;;;;;;;11.75;7.85;;;;;;;9.67;100.00;93601.41;5129258;28;20047;-75
2022/10/26 02:00:06;;;;;;;14.15;7.55;;;;;;;9.57;100.00;93578.69;5129138;28;20051;-75
2022/10/26 02:02:49;;;;;;;14.85;7.85;;;;;;;9.67;100.00;93596.28;5128907;28;20095;-75
2022/10/26 02:05:39;;;;;;;15.05;8.18;;;;;;;9.67;100.00;93597.06;5129155;28;20075;-75
2022/10/26 02:08:19;;;;;;;15.38;7.75;;;;;;;9.63;100.00;93596.66;5128750;28;20081;-75
2022/10/26 02:10:56;;;;;;;14.65;7.72;;;;;;;9.57;100.00;93597.44;5129113;28;20043;-75
2022/10/26 02:13:44;;;;;;;13.65;7.82;;;;;;;9.52;100.00;93591.31;5129216;27;20096;-74
2022/10/26 02:16:19;;;;;;;13.68;7.00;;;;;;;9.43;100.00;93590.69;5132831;27;20096;-75
2022/10/26 02:18:53;;;;;;;16.23;7.63;;;;;;;9.46;100.00;93600.56;5132485;27;20047;-74
2022/10/26 02:21:24;;;;;;;12.10;7.20;;;;;;;9.44;100.00;93595.63;5132734;27;20432;-75
2022/10/26 02:23:54;;;;;;;12.00;6.53;;;;;;;9.39;100.00;93589.50;5132719;27;20325;-74
2022/10/26 02:26:25;;;;;;;12.77;6.80;;;;;;;9.39;100.00;93597.19;5132648;27;20039;-74
2022/10/26 02:28:56;;;;;;;12.25;7.20;;;;;;;9.39;100.00;93597.19;5132614;27;20050;-75
2022/10/26 02:31:25;;;;;;;13.82;6.70;;;;;;;9.37;100.00;93605.06;5132527;27;20453;-74
2022/10/26 02:33:57;;;;;;;13.15;6.72;;;;;;;9.26;100.00;93603.84;5132580;27;20096;-75
2022/10/26 02:36:27;;;;;;;12.07;6.60;;;;;;;9.20;100.00;93599.47;5132235;27;20047;-75
2022/10/26 02:38:55;;;;;;;12.43;6.90;;;;;;;9.21;100.00;93599.28;5132026;27;20626;-75
2022/10/26 02:41:25;;;;;;;12.23;7.13;;;;;;;9.24;100.00;93603.25;5132157;27;20490;-74
2022/10/26 02:43:57;;;;;;;12.45;7.60;;;;;;;9.27;100.00;93602.88;5132384;27;20039;-74
2022/10/26 02:46:26;;;;;;;14.73;8.25;;;;;;;9.17;100.00;93605.00;5131998;27;20054;-75
2022/10/26 02:48:55;;;;;;;18.38;9.05;;;;;;;9.23;100.00;93605.00;5132273;27;20134;-74
2022/10/26 02:51:29;;;;;;;18.88;8.25;;;;;;;9.21;100.00;93604.41;5131961;27;20043;-75
2022/10/26 02:54:01;;;;;;;19.40;7.88;;;;;;;9.09;100.00;93599.03;5131736;27;20043;-75
2022/10/26 02:56:35;;;;;;;13.23;7.25;;;;;;;9.16;100.00;93609.31;5131819;27;20491;-75
2022/10/26 02:59:05;;;;;;;15.65;7.50;;;;;;;9.09;100.00;93604.16;5131872;27;20035;-76
2022/10/26 03:01:34;;;;;;;12.40;6.60;;;;;;;9.08;100.00;93610.28;5132022;27;20095;-75
2022/10/26 03:04:02;;;;;;;11.35;7.05;;;;;;;9.05;100.00;93608.09;5131653;27;20047;-76
2022/10/26 03:06:29;;;;;;;13.23;5.78;;;;;;;8.98;100.00;93617.50;5131811;27;20047;-75
2022/10/26 03:08:56;;;;;;;14.43;7.20;;;;;;;8.87;100.00;93600.91;5131796;27;20108;-75
2022/10/26 03:11:22;;;;;;;15.50;8.75;;;;;;;8.94;100.00;93617.09;5131770;27;20051;-74
2022/10/26 03:13:49;;;;;;;17.35;9.85;;;;;;;8.91;100.00;93619.25;5131457;27;20491;-74
2022/10/26 03:16:16;;;;;;;15.82;8.63;;;;;;;8.91;100.00;93614.94;5131546;27;20047;-74
2022/10/26 03:18:42;;;;;;;15.60;9.13;;;;;;;8.92;100.00;93625.97;5131678;27;20039;-75
2022/10/26 03:21:11;;;;;;;16.35;8.52;;;;;;;8.91;100.00;93622.63;5131299;27;20099;-75
2022/10/26 03:23:37;;;;;;;16.33;8.40;;;;;;;8.91;100.00;93621.81;5131320;27;20481;-75
2022/10/26 03:26:04;;;;;;;15.15;8.23;;;;;;;8.87;100.00;93623.97;5131216;27;20084;-74
2022/10/26 03:28:31;;;;;;;13.35;8.48;;;;;;;8.88;100.00;93624.78;5131407;27;20047;-75
2022/10/26 03:30:58;;;;;;;14.57;7.50;;;;;;;8.86;100.00;93627.50;5130829;27;20055;-75
2022/10/26 03:33:24;;;;;;;17.52;8.63;;;;;;;8.85;100.00;93630.25;5131317;27;20039;-75
2022/10/26 03:35:55;;;;;;;18.17;9.38;;;;;;;8.63;100.00;93608.06;5131082;27;20551;-75
2022/10/26 03:38:23;;;;;;;13.75;8.05;;;;;;;8.76;100.00;93635.53;5131180;27;20043;-75
2022/10/26 03:40:50;;;;;;;14.98;7.90;;;;;;;8.77;100.00;93636.31;5131261;27;20051;-75
2022/10/26 03:43:17;;;;;;;12.38;7.45;;;;;;;8.78;100.00;93631.00;5130654;27;20392;-75
2022/10/26 03:45:43;;;;;;;15.93;8.35;;;;;;;8.74;100.00;93636.72;5130837;27;20035;-75
2022/10/26 03:48:11;;;;;;;10.38;6.85;;;;;;;8.72;100.00;93633.53;5130693;27;20092;-75
2022/10/26 03:50:37;;;;;;;12.25;7.15;;;;;;;8.64;100.00;93632.69;5130317;27;20556;-75
2022/10/26 03:53:04;;;;;;;13.38;6.80;;;;;;;8.69;100.00;93642.38;5130682;27;20043;-75
2022/10/26 03:55:32;;;;;;;11.82;7.15;;;;;;;8.62;100.00;93642.34;5130729;27;20528;-75
2022/10/26 03:57:59;;;;;;;14.90;7.47;;;;;;;8.52;100.00;93639.31;5130777;27;20039;-75
2022/10/26 04:00:26;;;;;;;11.23;6.47;;;;;;;8.47;100.00;93637.25;5130829;27;20047;-75
2022/10/26 04:02:57;;;;;;;11.30;6.43;;;;;;;8.45;100.00;93641.78;5130788;27;20051;-75
2022/10/26 04:05:25;;;;;;;11.82;6.63;;;;;;;8.42;100.00;93648.06;5130358;27;20043;-75
2022/10/26 04:07:55;;;;;;;10.00;6.55;;;;;;;8.40;100.00;93644.13;5130138;27;20051;-75
2022/10/26 04:10:23;;;;;;;13.70;6.78;;;;;;;8.37;100.00;93649.59;5130300;27;20039;-75
2022/10/26 04:12:51;;;;;;;10.32;6.65;;;;;;;8.37;100.00;93649.59;5130381;27;20560;-75
2022/10/26 04:15:19;;;;;;;10.70;7.05;;;;;;;8.35;100.00;93643.88;5130341;27;20043;-75
2022/10/26 04:17:46;;;;;;;14.27;7.00;;;;;;;8.37;100.00;93647.03;5130530;27;20099;-75
2022/10/26 04:20:13;;;;;;;11.23;6.68;;;;;;;8.35;100.00;93646.44;5130390;27;20043;-74
2022/10/26 04:22:40;;;;;;;10.55;5.93;;;;;;;8.34;100.00;93645.63;5130337;27;20047;-74
2022/10/26 04:25:09;;;;;;;10.70;6.22;;;;;;;8.36;100.00;93650.56;5130342;27;20042;-74
2022/10/26 04:27:36;;;;;;;11.75;6.45;;;;;;;8.35;100.00;93647.25;5129974;27;20131;-74
2022/10/26 04:30:07;;;;;;;10.60;6.75;;;;;;;8.31;100.00;93643.44;5129971;27;20494;-75
2022/10/26 04:32:33;;;;;;;11.98;5.72;;;;;;;8.30;100.00;93639.31;5129811;27;20043;-74
2022/10/26 04:35:00;;;;;;;13.20;6.07;;;;;;;8.29;100.00;93648.75;5129869;27;20088;-74
2022/10/26 04:37:27;;;;;;;11.52;6.28;;;;;;;8.27;100.00;93652.47;5129677;27;20035;-74
2022/10/26 04:39:53;;;;;;;13.52;7.43;;;;;;;8.24;100.00;93651.06;5129897;27;20112;-75
2022/10/26 04:42:20;;;;;;;12.65;7.05;;;;;;;8.19;100.00;93639.81;5130027;27;20043;-75
2022/10/26 04:44:47;;;;;;;12.98;7.43;;;;;;;8.26;100.00;93656.00;5129545;27;20047;-76
2022/10/26 04:47:15;;;;;;;11.85;6.95;;;;;;;8.22;100.00;93655.59;5129932;27;20544;-75
2022/10/26 04:49:42;;;;;;;14.88;6.65;;;;;;;8.12;100.00;93648.22;5129918;27;20043;-76
2022/10/26 04:52:08;;;;;;;14.38;8.02;;;;;;;8.13;100.00;93660.03;5129871;27;20108;-75
2022/10/26 04:54:35;;;;;;;14.70;6.72;;;;;;;8.10;100.00;93654.50;5129498;27;20499;-75
2022/10/26 04:57:02;;;;;;;15.20;7.20;;;;;;;8.07;100.00;93660.78;5129470;27;20039;-75
2022/10/26 04:59:28;;;;;;;17.35;7.47;;;;;;;8.03;100.00;93659.53;5129801;27;20104;-75
2022/10/26 05:01:55;;;;;;;10.73;6.72;;;;;;;8.03;100.00;93662.09;5129290;27;20100;-75
2022/10/26 05:04:23;;;;;;;10.52;6.82;;;;;;;7.98;100.00;93655.00;5129701;27;20147;-76
2022/10/26 05:06:52;;;;;;;13.82;6.88;;;;;;;7.99;100.00;93655.75;5129311;27;20047;-75
2022/10/26 05:09:19;;;;;;;16.42;7.65;;;;;;;7.98;100.00;93660.09;5129342;27;20092;-75
2022/10/26 05:11:46;;;;;;;14.43;7.80;;;;;;;7.96;100.00;93656.91;5129598;28;20047;-75
2022/10/26 05:14:12;;;;;;;24.42;11.02;;;;;;;8.01;100.00;93658.94;5129442;28;20047;-75
2022/10/26 05:16:39;;;;;;;74.13;31.35;;;;;;;8.02;100.00;93663.84;5129549;28;20047;-75
2022/10/26 05:19:06;;;;;;;80.47;31.48;;;;;;;8.06;100.00;93660.94;5129259;28;20543;-75
2022/10/26 05:21:34;;;;;;;92.32;35.83;;;;;;;8.06;100.00;93664.28;5129348;28;20053;-75
2022/10/26 05:24:01;;;;;;;76.95;30.52;;;;;;;8.09;100.00;93663.94;5129141;28;20039;-75
2022/10/26 05:26:28;;;;;;;52.40;20.13;;;;;;;8.12;100.00;93673.00;5129252;28;20096;-75
2022/10/26 05:28:55;;;;;;;36.08;15.95;;;;;;;8.06;100.00;93666.84;5129310;28;20088;-75
2022/10/26 05:31:22;;;;;;;32.85;15.60;;;;;;;8.10;100.00;93665.50;5129341;28;20116;-75
2022/10/26 05:33:49;;;;;;;27.70;13.90;;;;;;;8.14;100.00;93674.41;5129447;28;20039;-75
2022/10/26 05:36:17;;;;;;;25.60;12.40;;;;;;;8.07;100.00;93667.66;5129335;28;20130;-75
2022/10/26 05:38:45;;;;;;;20.42;11.27;;;;;;;8.17;100.00;93678.38;5129034;28;20491;-75
2022/10/26 05:41:12;;;;;;;25.10;12.43;;;;;;;8.19;100.00;93680.75;5129451;28;20043;-75
2022/10/26 05:43:39;;;;;;;15.43;9.60;;;;;;;8.16;100.00;93681.91;5129130;28;20396;-74
2022/10/26 05:46:06;;;;;;;16.60;9.27;;;;;;;8.23;100.00;93690.44;5129295;28;20092;-75
2022/10/26 05:48:32;;;;;;;18.77;9.05;;;;;;;8.28;100.00;93685.56;5129345;27;20042;-74
2022/10/26 05:51:00;;;;;;;17.05;9.35;;;;;;;8.32;100.00;93692.88;5132861;27;20096;-75
2022/10/26 05:53:27;;;;;;;13.63;9.07;;;;;;;8.38;100.00;93692.94;5133525;27;20126;-74
2022/10/26 05:55:56;;;;;;;14.05;8.68;;;;;;;8.42;100.00;93691.59;5133625;27;20107;-74
2022/10/26 05:58:24;;;;;;;16.02;9.48;;;;;;;8.49;100.00;93691.66;5133548;27;20047;-74
2022/10/26 06:01:07;;;;;;;18.08;10.10;;;;;;;8.55;100.00;93698.63;5133713;27;20040;-75
2022/10/26 06:03:47;;;;;;;19.13;9.65;;;;;;;8.54;100.00;93696.25;5133411;27;20714;-74
2022/10/26 06:06:15;;;;;;;19.45;9.95;;;;;;;8.66;100.00;93707.56;5133183;27;20509;-76
2022/10/26 06:08:42;;;;;;;19.27;9.88;;;;;;;8.69;100.00;93716.66;5133044;27;20088;-75
2022/10/26 06:11:11;;;;;;;21.08;10.77;;;;;;;8.79;100.00;93711.19;5133132;27;20499;-75
2022/10/26 06:13:38;;;;;;;17.42;10.77;;;;;;;8.87;100.00;93711.06;5132983;27;20585;-75
2022/10/26 06:16:30;;;;;;;21.52;10.40;;;;;;;8.95;100.00;93720.41;5133067;27;20084;-75
2022/10/26 06:19:06;;;;;;;20.80;10.10;;;;;;;9.09;100.00;93719.47;5133030;27;20449;-75
2022/10/26 06:21:48;;;;;;;19.92;10.32;;;;;;;9.21;100.00;93717.19;5133224;27;20123;-74
2022/10/26 06:24:24;;;;;;;22.42;10.95;;;;;;;9.26;100.00;93706.38;5132673;27;20498;-75
2022/10/26 06:26:59;;;;;;;20.60;10.05;;;;;;;9.45;100.00;93715.16;5133426;27;20115;-75
2022/10/26 06:29:38;;;;;;;21.85;10.50;;;;;;;9.64;100.00;93718.03;5132767;27;20087;-75
2022/10/26 06:32:05;;;;;;;15.82;9.18;;;;;;;9.81;100.00;93721.03;5132711;27;20499;-75
2022/10/26 06:34:36;;;;;;;15.82;8.68;;;;;;;9.94;100.00;93720.28;5132903;27;20039;-75
2022/10/26 06:37:03;;;;;;;17.38;8.60;;;;;;;10.10;100.00;93723.50;5132911;27;20092;-75
2022/10/26 06:39:36;;;;;;;21.05;8.23;;;;;;;10.27;100.00;93724.72;5132756;27;20039;-75
2022/10/26 06:42:06;;;;;;;19.13;9.50;;;;;;;10.43;100.00;93726.16;5132867;27;20062;-75
2022/10/26 06:44:33;;;;;;;25.02;9.63;;;;;;;10.60;100.00;93725.00;5132633;27;20051;-75
2022/10/26 06:47:09;;;;;;;18.08;10.75;;;;;;;10.80;100.00;93725.78;5133064;27;20492;-75
2022/10/26 06:49:38;;;;;;;20.70;10.82;;;;;;;10.99;100.00;93728.56;5132333;27;20073;-75
2022/10/26 06:52:13;;;;;;;23.15;9.98;;;;;;;11.19;100.00;93725.16;5132490;27;20054;-75
2022/10/26 06:54:48;;;;;;;27.67;12.23;;;;;;;11.39;100.00;93721.78;5132479;27;20043;-75
2022/10/26 06:57:19;;;;;;;23.53;11.80;;;;;;;11.62;100.00;93722.09;5132414;27;20047;-75
2022/10/26 06:59:49;;;;;;;26.23;11.95;;;;;;;11.83;100.00;93725.41;5132100;27;20051;-75
2022/10/26 07:02:16;;;;;;;26.60;11.63;;;;;;;12.02;100.00;93723.72;5132030;27;20547;-75
2022/10/26 07:04:43;;;;;;;28.25;11.05;;;;;;;12.19;100.00;93725.84;5131996;27;20047;-74
2022/10/26 07:07:12;;;;;;;25.77;11.27;;;;;;;12.40;100.00;93722.16;5131916;27;20055;-75
2022/10/26 07:09:39;;;;;;;25.17;11.50;;;;;;;12.59;100.00;93721.44;5132585;27;20050;-75
2022/10/26 07:12:07;;;;;;;23.67;10.52;;;;;;;12.76;100.00;93729.44;5131830;27;20051;-75
2022/10/26 07:14:35;;;;;;;22.55;11.00;;;;;;;12.97;100.00;93725.72;5129722;27;20039;-76
2022/10/26 07:17:01;;;;;;;31.60;12.65;;;;;;;13.07;100.00;93728.63;5116796;27;20618;-75
2022/10/26 07:19:28;;;;;;;31.45;13.25;;;;;;;13.16;100.00;93723.19;5130709;27;20043;-75
2022/10/26 07:21:58;;;;;;;29.80;15.02;;;;;;;13.25;100.00;93732.22;5131863;27;20100;-75
2022/10/26 07:24:24;;;;;;;42.10;19.30;;;;;;;13.32;100.00;93725.22;5131933;27;20047;-76
2022/10/26 07:26:53;;;;;;;38.17;17.33;;;;;;;13.37;100.00;93729.72;5131850;27;20054;-75
2022/10/26 07:29:20;;;;;;;43.78;19.90;;;;;;;13.44;100.00;93733.03;5131395;27;20499;-76
2022/10/26 07:31:48;;;;;;;45.22;20.00;;;;;;;13.54;100.00;93736.94;5131956;27;20043;-76
2022/10/26 07:34:15;;;;;;;28.50;14.55;;;;;;;13.54;100.00;93739.50;5131577;27;20118;-76
2022/10/26 07:36:41;;;;;;;20.58;10.05;;;;;;;13.62;100.00;93728.91;5131589;27;20070;-76
2022/10/26 07:39:08;;;;;;;30.75;11.98;;;;;;;13.56;100.00;93712.47;5131379;27;20051;-76
2022/10/26 07:41:35;;;;;;;24.63;11.70;;;;;;;13.87;100.00;93730.59;5131317;27;20100;-75
2022/10/26 07:44:02;;;;;;;24.88;11.77;;;;;;;14.08;100.00;93734.53;5131226;27;20039;-75
2022/10/26 07:46:29;;;;;;;26.52;12.52;;;;;;;14.21;100.00;93732.78;5131121;27;20043;-75
2022/10/26 07:48:57;;;;;;;27.70;10.55;;;;;;;14.29;100.00;93735.84;5131254;27;20097;-75
2022/10/26 07:51:24;;;;;;;17.45;7.63;;;;;;;14.43;100.00;93736.47;5130906;27;20456;-75
2022/10/26 07:53:51;;;;;;;21.05;7.40;;;;;;;14.65;100.00;93735.16;5131212;27;20050;-76
2022/10/26 07:56:18;;;;;;;33.10;8.93;;;;;;;14.83;100.00;93742.09;5131081;27;20047;-76
2022/10/26 07:58:44;;;;;;;19.55;7.82;;;;;;;15.06;100.00;93738.75;5130902;27;20069;-76
2022/10/26 08:01:13;;;;;;;23.10;6.85;;;;;;;15.27;100.00;93741.78;5121932;27;20048;-76
2022/10/26 08:03:40;;;;;;;25.95;8.35;;;;;;;15.55;100.00;93744.69;5125676;27;20495;-76
2022/10/26 08:06:09;;;;;;;23.30;8.07;;;;;;;15.74;99.52;93750.53;5131246;27;20083;-76
2022/10/26 08:08:36;;;;;;;23.02;6.93;;;;;;;15.78;98.10;93756.81;5130498;27;20130;-76
2022/10/26 08:11:03;;;;;;;17.23;6.90;;;;;;;15.87;96.16;93749.47;5130892;27;20039;-76
2022/10/26 08:13:31;;;;;;;18.02;7.25;;;;;;;16.02;95.66;93754.97;5130173;27;20095;-76
2022/10/26 08:15:58;;;;;;;19.65;6.68;;;;;;;16.09;95.94;93759.25;5130364;27;20046;-76
2022/10/26 08:18:24;;;;;;;16.15;5.18;;;;;;;16.35;96.31;93747.56;5130901;27;20043;-76
2022/10/26 08:20:51;;;;;;;15.77;5.78;;;;;;;16.59;94.45;93744.84;5130694;27;20050;-76
2022/10/26 08:23:20;;;;;;;12.70;4.78;;;;;;;16.73;91.37;93747.13;5130519;27;20499;-77
2022/10/26 08:25:46;;;;;;;15.60;5.57;;;;;;;16.96;91.16;93748.81;5130364;27;20099;-77
2022/10/26 08:28:13;;;;;;;13.43;4.78;;;;;;;17.11;91.08;93742.31;5130424;27;20092;-76
2022/10/26 08:30:40;;;;;;;14.75;4.95;;;;;;;17.23;85.68;93754.16;5130269;27;20100;-76
2022/10/26 08:33:08;;;;;;;17.17;5.57;;;;;;;17.26;85.71;93749.53;5116178;27;20051;-76
2022/10/26 08:35:35;;;;;;;12.63;4.43;;;;;;;17.47;84.66;93753.19;5130417;27;20047;-76
2022/10/26 08:38:01;;;;;;;8.73;4.50;;;;;;;17.71;84.90;93753.78;5130489;27;20072;-76
2022/10/26 08:40:32;;;;;;;8.88;3.95;;;;;;;17.77;82.36;93745.00;5130214;27;20452;-76
2022/10/26 08:43:04;;;;;;;13.95;4.22;;;;;;;18.06;80.06;93762.28;5130059;27;20050;-76
2022/10/26 08:45:37;;;;;;;10.57;4.28;;;;;;;18.09;78.23;93759.19;5120076;27;20492;-76
2022/10/26 08:48:12;;;;;;;18.30;4.15;;;;;;;18.29;80.49;93755.25;5127093;27;20506;-76
2022/10/26 08:50:44;;;;;;;13.35;3.40;;;;;;;18.49;79.31;93754.66;5129997;27;20194;-76
2022/10/26 08:53:17;;;;;;;10.93;3.85;;;;;;;18.66;77.39;93757.16;5130188;27;20051;-76
2022/10/26 08:55:48;;;;;;;14.30;3.42;;;;;;;18.25;74.37;93757.56;5130513;27;20119;-76
2022/10/26 08:58:18;;;;;;;8.95;3.05;;;;;;;18.46;76.50;93762.94;5129675;27;20502;-75
2022/10/26 09:00:49;;;;;;;8.48;3.70;;;;;;;18.24;76.24;93768.97;5129840;27;20092;-75
2022/10/26 09:03:17;;;;;;;11.38;3.40;;;;;;;17.87;76.01;93772.94;5129966;27;20046;-75
2022/10/26 09:05:55;;;;;;;14.10;3.40;;;;;;;17.42;77.49;93771.31;5130335;27;20047;-75
2022/10/26 09:08:34;;;;;;;8.82;3.17;;;;;;;17.52;77.45;93768.06;5129593;27;20100;-77
2022/10/26 09:11:12;;;;;;;7.40;2.40;;;;;;;17.59;77.29;93766.88;5129915;27;20040;-77
2022/10/26 09:13:48;;;;;;;9.13;2.97;;;;;;;17.74;74.38;93763.69;5129751;28;20050;-76
2022/10/26 09:16:26;;;;;;;17.40;7.85;;;;;;;17.90;72.86;93767.25;5130232;28;20441;-76
2022/10/26 09:19:05;;;;;;;13.15;4.20;;;;;;;18.09;74.01;93763.63;5129439;28;20039;-76
2022/10/26 09:21:40;;;;;;;11.75;3.90;;;;;;;18.40;75.41;93766.53;5130007;28;20055;-76
2022/10/26 09:24:14;;;;;;;18.13;4.40;;;;;;;18.74;76.54;93760.34;5128882;27;20499;-76
2022/10/26 09:26:54;;;;;;;22.30;6.30;;;;;;;19.03;73.17;93747.84;5133439;27;20043;-76
2022/10/26 09:29:25;;;;;;;18.00;5.05;;;;;;;19.17;70.43;93755.25;5132769;27;20538;-77
2022/10/26 09:31:53;;;;;;;6.47;3.05;;;;;;;19.26;69.90;93760.78;5131998;27;20483;-76
2022/10/26 09:34:26;;;;;;;8.00;3.50;;;;;;;19.41;69.38;93757.47;5133665;27;20100;-77
2022/10/26 09:36:55;;;;;;;14.18;2.97;;;;;;;19.42;71.67;93730.38;5133352;27;20108;-77
2022/10/26 09:39:30;;;;;;;8.23;3.28;;;;;;;19.45;66.12;93764.53;5132935;27;20047;-77
2022/10/26 09:42:04;;;;;;;8.63;2.85;;;;;;;19.05;67.48;93758.03;5133096;27;20490;-76
2022/10/26 09:44:36;;;;;;;8.68;2.83;;;;;;;18.69;67.99;93750.66;5130782;27;20047;-77
2022/10/26 09:47:10;;;;;;;9.50;2.60;;;;;;;18.61;68.30;93758.94;5129645;27;20096;-77
2022/10/26 09:49:44;;;;;;;7.00;2.58;;;;;;;18.73;68.48;93758.75;5133634;27;20047;-76
2022/10/26 09:52:11;;;;;;;15.77;3.05;;;;;;;19.05;71.69;93745.00;5133429;27;20457;-76
2022/10/26 09:54:37;;;;;;;7.05;2.88;;;;;;;19.32;69.09;93744.94;5133126;27;20072;-76
2022/10/26 09:57:07;;;;;;;12.23;3.15;;;;;;;19.73;69.40;93749.56;5133540;27;20088;-76
2022/10/26 09:59:38;;;;;;;12.38;2.40;;;;;;;19.94;66.94;93738.47;5133261;27;20507;-76
2022/10/26 10:02:32;;;;;;;5.57;2.20;;;;;;;20.25;62.61;93749.81;5133658;27;20376;-76
2022/10/26 10:04:59;;;;;;;7.63;2.05;;;;;;;20.48;64.75;93733.94;5130419;27;20092;-76
2022/10/26 10:07:26;;;;;;;22.50;4.65;;;;;;;20.74;62.29;93739.19;5133138;27;20055;-77
2022/10/26 10:10:07;;;;;;;10.90;2.72;;;;;;;20.93;61.86;93736.88;5133573;27;20046;-77
2022/10/26 10:12:35;;;;;;;11.05;3.28;;;;;;;21.01;57.52;93736.34;5133457;27;20632;-76
2022/10/26 10:15:02;;;;;;;22.55;7.50;;;;;;;21.04;60.51;93728.00;5133264;27;20047;-77
2022/10/26 10:17:28;;;;;;;10.35;3.42;;;;;;;21.07;59.30;93726.69;5133029;27;20039;-77
2022/10/26 10:20:11;;;;;;;10.73;2.35;;;;;;;20.86;58.01;93729.31;5132863;27;20043;-77
2022/10/26 10:22:56;;;;;;;12.02;2.97;;;;;;;20.67;58.92;93729.00;5133056;27;20080;-77
2022/10/26 10:25:33;;;;;;;18.88;5.18;;;;;;;20.94;62.10;93715.75;5132708;27;20043;-76
2022/10/26 10:28:02;;;;;;;11.05;3.38;;;;;;;21.23;60.50;93724.84;5113308;27;20126;-76
2022/10/26 10:30:32;;;;;;;10.57;3.30;;;;;;;21.29;57.99;93725.63;5130473;27;20493;-76
2022/10/26 10:33:06;;;;;;;6.90;1.83;;;;;;;20.90;56.32;93721.72;5131917;27;20514;-77
2022/10/26 10:35:33;;;;;;;9.10;2.60;;;;;;;20.98;59.25;93723.84;5131806;27;20096;-77
2022/10/26 10:38:00;;;;;;;6.82;2.85;;;;;;;21.20;59.85;93713.09;5130475;27;20670;-77
2022/10/26 10:40:31;;;;;;;6.05;2.25;;;;;;;21.18;55.43;93725.63;5120228;27;20146;-78
2022/10/26 10:43:17;;;;;;;24.08;4.55;;;;;;;21.29;57.61;93712.56;5127793;27;20047;-76
2022/10/26 10:45:48;;;;;;;4.75;1.70;;;;;;;21.29;56.27;93702.88;5131240;27;20047;-76
2022/10/26 10:48:19;;;;;;;4.88;1.42;;;;;;;21.36;56.45;93702.63;5122807;27;20163;-77
2022/10/26 10:50:53;;;;;;;2.70;0.82;;;;;;;21.56;56.08;93698.38;5129234;27;20513;-77
2022/10/26 10:53:29;;;;;;;3.50;1.08;;;;;;;21.58;51.93;93681.38;5132063;27;20055;-77
2022/10/26 10:56:01;;;;;;;;;;;;;;;21.56;53.01;93688.69;5129647;27;20043;-76
2022/10/26 10:58:38;;;;;;;8.75;2.80;;;;;;;21.63;55.36;93683.19;5122376;27;20453;-76
2022/10/26 11:01:10;;;;;;;5.57;2.45;;;;;;;21.78;54.24;93673.75;5126050;27;20051;-76
2022/10/26 11:04:02;;;;;;;8.43;2.83;;;;;;;21.89;51.91;93680.50;5118322;27;20097;-76
2022/10/26 11:06:31;;;;;;;7.88;2.33;;;;;;;22.00;53.81;93679.38;5119394;27;20431;-76
2022/10/26 11:09:03;;;;;;;4.05;1.65;;;;;;;22.00;50.74;93655.06;5122705;27;20040;-77
2022/10/26 11:11:36;;;;;;;6.72;2.13;;;;;;;22.24;52.28;93659.63;5126138;27;20047;-76
2022/10/26 11:14:08;;;;;;;7.57;1.90;;;;;;;22.43;51.34;93673.66;5116177;27;20051;-77
2022/10/26 11:16:40;;;;;;;5.35;1.30;;;;;;;22.49;50.41;93669.16;5131947;27;20046;-77
2022/10/26 11:19:18;;;;;;;2.70;0.88;;;;;;;22.35;50.03;93668.97;5131054;27;20550;-77
2022/10/26 11:21:48;;;;;;;6.78;1.00;;;;;;;22.37;50.51;93669.50;5131628;27;20088;-77
2022/10/26 11:24:21;;;;;;;5.95;1.10;;;;;;;22.26;50.52;93662.78;5127263;27;20066;-78
2022/10/26 11:26:54;;;;;;;4.32;1.10;;;;;;;22.30;49.75;93671.63;5131065;27;20116;-78
2022/10/26 11:29:39;;;;;;;3.03;0.70;;;;;;;22.25;48.60;93662.00;5130111;27;20051;-77
2022/10/26 11:32:23;;;;;;;3.92;1.55;;;;;;;22.06;52.08;93632.28;5131076;27;20047;-78
2022/10/26 11:35:17;;;;;;;5.40;1.75;;;;;;;22.45;51.43;93654.28;5119230;27;20092;-79
2022/10/26 11:40:52;;;;;;;3.28;0.90;;;;;;;21.93;49.54;93637.06;5099738;27;20051;-77
2022/10/26 11:43:25;;;;;;;6.28;1.15;;;;;;;21.98;48.76;93628.41;5116690;27;20130;-78